createdAt,value
2023-05-14T04:00:29.347Z,998.50
2023-05-14T04:05:29.286Z,998.53
2023-05-14T04:10:29.235Z,998.52
2023-05-14T04:15:36.248Z,998.55
2023-05-14T04:20:29.134Z,998.55
2023-05-14T04:25:29.163Z,998.47
2023-05-14T04:30:28.999Z,998.43
2023-05-14T04:35:29.000Z,998.48
2023-05-14T04:40:28.910Z,998.48
2023-05-14T04:45:28.863Z,998.47
2023-05-14T04:50:28.803Z,998.43
2023-05-14T04:55:28.763Z,998.37
2023-05-14T05:00:28.705Z,998.33
2023-05-14T05:05:28.629Z,998.44
2023-05-14T05:10:28.577Z,998.38
2023-05-14T05:15:28.540Z,998.27
2023-05-14T05:20:28.594Z,998.26
2023-05-14T05:25:28.421Z,998.23
2023-05-14T05:30:28.379Z,998.29
2023-05-14T05:35:28.386Z,998.25
2023-05-14T05:40:28.246Z,998.27
2023-05-14T05:45:28.220Z,998.27
2023-05-14T05:50:28.140Z,998.29
2023-05-14T05:55:28.108Z,998.42
2023-05-14T06:00:28.042Z,998.52
2023-05-14T06:05:28.051Z,998.55
2023-05-14T06:10:27.920Z,998.62
2023-05-14T06:15:27.929Z,998.63
2023-05-14T06:20:27.830Z,998.51
2023-05-14T06:25:27.759Z,998.57
2023-05-14T06:30:27.703Z,998.52
2023-05-14T06:35:27.668Z,998.51
2023-05-14T06:40:27.610Z,998.51
2023-05-14T06:45:27.541Z,998.55
2023-05-14T06:50:27.533Z,998.57
2023-05-14T06:55:27.521Z,998.60
2023-05-14T07:00:27.407Z,998.53
2023-05-14T07:05:27.330Z,998.51
2023-05-14T07:10:27.420Z,998.52
2023-05-14T07:15:27.242Z,998.49
2023-05-14T07:20:27.336Z,998.46
2023-05-14T07:25:27.115Z,998.49
2023-05-14T07:30:27.096Z,998.49
2023-05-14T07:35:27.046Z,998.39
2023-05-14T07:40:27.020Z,998.41
2023-05-14T07:45:26.904Z,998.36
2023-05-14T07:50:26.905Z,998.39
2023-05-14T07:55:26.824Z,998.36
2023-05-14T08:00:26.917Z,998.35
2023-05-14T08:05:26.695Z,998.31
2023-05-14T08:10:27.254Z,998.31
2023-05-14T08:15:27.825Z,998.38
2023-05-14T08:20:26.764Z,998.31
2023-05-14T08:25:26.481Z,998.25
2023-05-14T08:30:26.817Z,998.22
2023-05-14T08:35:26.396Z,998.25
2023-05-14T08:40:26.549Z,998.23
2023-05-14T08:45:26.265Z,998.16
2023-05-14T08:50:26.480Z,998.10
2023-05-14T08:55:26.249Z,998.02
2023-05-14T09:00:26.559Z,998.03
2023-05-14T09:05:26.051Z,998.03
2023-05-14T09:10:26.312Z,998.05
2023-05-14T09:15:25.959Z,997.88
2023-05-14T09:20:26.438Z,998.04
2023-05-14T09:25:25.832Z,997.92
2023-05-14T09:30:26.012Z,997.98
2023-05-14T09:35:25.750Z,997.90
2023-05-14T09:40:25.745Z,997.79
2023-05-14T09:45:25.613Z,997.90
2023-05-14T09:50:25.893Z,997.73
2023-05-14T09:55:25.538Z,997.74
2023-05-14T10:00:25.650Z,997.70
2023-05-14T10:05:25.459Z,997.63
2023-05-14T10:10:25.709Z,997.54
2023-05-14T10:15:32.453Z,997.53
2023-05-14T10:20:25.598Z,997.53
2023-05-14T10:25:25.186Z,997.53
2023-05-14T10:30:25.622Z,997.39
2023-05-14T10:35:25.085Z,997.33
2023-05-14T10:40:25.258Z,997.27
2023-05-14T10:45:24.958Z,997.21
2023-05-14T10:50:25.179Z,997.18
2023-05-14T10:55:24.877Z,997.18
2023-05-14T11:00:24.961Z,997.18
2023-05-14T11:05:24.753Z,997.00
2023-05-14T11:10:24.888Z,996.97
2023-05-14T11:15:24.662Z,997.00
2023-05-14T11:20:24.913Z,996.86
2023-05-14T11:25:24.525Z,996.89
2023-05-14T11:30:24.711Z,996.83
2023-05-14T11:35:24.446Z,996.78
2023-05-14T11:40:24.627Z,996.76
2023-05-14T11:45:24.321Z,996.70
2023-05-14T11:50:24.410Z,996.69
2023-05-14T11:55:24.223Z,996.60
2023-05-14T12:00:24.431Z,996.56
2023-05-14T12:05:24.101Z,996.43
2023-05-14T12:10:24.275Z,996.41
2023-05-14T12:15:23.999Z,996.47
2023-05-14T12:20:24.239Z,996.40
2023-05-14T12:25:23.862Z,996.40
2023-05-14T12:30:23.854Z,996.35
2023-05-14T12:35:24.224Z,996.24
2023-05-14T12:40:23.999Z,996.22
2023-05-14T12:45:23.855Z,996.23
2023-05-14T12:50:23.808Z,996.10
2023-05-14T12:55:23.586Z,995.99
2023-05-14T13:00:23.776Z,996.00
2023-05-14T13:05:23.608Z,995.91
2023-05-14T13:10:23.383Z,995.91
2023-05-14T13:15:23.823Z,995.83
2023-05-14T13:20:23.273Z,995.90
2023-05-14T13:25:23.395Z,995.87
2023-05-14T13:30:23.177Z,995.75
2023-05-14T13:35:23.352Z,995.89
2023-05-14T13:40:23.062Z,995.81
2023-05-14T13:45:23.197Z,995.75
2023-05-14T13:50:22.964Z,995.73
2023-05-14T13:55:23.203Z,995.77
2023-05-14T14:00:22.847Z,995.60
2023-05-14T14:05:23.287Z,995.65
2023-05-14T14:10:22.738Z,995.51
2023-05-14T14:15:22.944Z,995.48
2023-05-14T14:20:22.622Z,995.47
2023-05-14T14:25:22.911Z,995.46
2023-05-14T14:30:22.529Z,995.26
2023-05-14T14:35:22.846Z,995.23
2023-05-14T14:40:22.400Z,995.25
2023-05-14T14:45:22.572Z,995.25
2023-05-14T14:50:22.329Z,995.24
2023-05-14T14:55:22.498Z,995.17
2023-05-14T15:00:22.549Z,995.13
2023-05-14T15:05:22.245Z,995.31
2023-05-14T15:10:22.108Z,995.18
2023-05-14T15:15:22.305Z,995.16
2023-05-14T15:20:21.986Z,995.12
2023-05-14T15:25:22.180Z,995.12
2023-05-14T15:30:21.874Z,995.05
2023-05-14T15:35:22.016Z,995.11
2023-05-14T15:40:21.846Z,994.93
2023-05-14T15:45:21.775Z,995.00
2023-05-14T15:50:21.702Z,995.00
2023-05-14T15:55:21.652Z,994.86
2023-05-14T16:00:21.810Z,994.94
2023-05-14T16:05:21.499Z,994.88
2023-05-14T16:10:21.708Z,994.94
2023-05-14T16:15:21.390Z,994.87
2023-05-14T16:20:21.377Z,994.88
2023-05-14T16:25:21.262Z,994.94
2023-05-14T16:30:21.236Z,994.95
2023-05-14T16:35:21.167Z,994.97
2023-05-14T16:40:21.188Z,994.94
2023-05-14T16:45:21.048Z,995.05
2023-05-14T16:50:20.999Z,994.94
2023-05-14T16:55:20.954Z,994.90
2023-05-14T17:00:20.894Z,994.95
2023-05-14T17:05:20.853Z,994.93
2023-05-14T17:10:20.775Z,994.95
2023-05-14T17:15:20.736Z,994.99
2023-05-14T17:20:20.673Z,995.02
2023-05-14T17:25:20.604Z,995.01
2023-05-14T17:30:20.567Z,995.03
2023-05-14T17:35:20.525Z,994.98
2023-05-14T17:40:20.446Z,995.11
2023-05-14T17:45:20.419Z,995.09
2023-05-14T17:50:20.347Z,995.04
2023-05-14T17:55:20.313Z,995.10
2023-05-14T18:00:20.261Z,995.17
2023-05-14T18:05:20.879Z,995.23
2023-05-14T18:10:20.176Z,995.24
2023-05-14T18:15:20.133Z,995.24
2023-05-14T18:20:20.070Z,995.20
2023-05-14T18:25:19.971Z,995.22
2023-05-14T18:30:19.926Z,995.29
2023-05-14T18:35:19.923Z,995.34
2023-05-14T18:40:19.850Z,995.40
2023-05-14T18:45:19.748Z,995.34
2023-05-14T18:50:19.698Z,995.42
2023-05-14T18:55:19.681Z,995.49
2023-05-14T19:00:19.595Z,995.50
2023-05-14T19:05:19.549Z,995.46
2023-05-14T19:10:19.504Z,995.49
2023-05-14T19:15:19.471Z,995.62
2023-05-14T19:20:19.410Z,995.56
2023-05-14T19:25:19.324Z,995.66
2023-05-14T19:30:19.273Z,995.65
2023-05-14T19:35:19.270Z,995.68
2023-05-14T19:40:19.188Z,995.63
2023-05-14T19:45:19.112Z,995.73
2023-05-14T19:50:19.075Z,995.74
2023-05-14T19:55:19.028Z,995.73
2023-05-14T20:00:18.937Z,995.65
2023-05-14T20:05:18.892Z,995.65
2023-05-14T20:10:18.845Z,995.64
2023-05-14T20:15:18.822Z,995.63
2023-05-14T20:20:18.939Z,995.69
2023-05-14T20:25:18.669Z,995.67
2023-05-14T20:30:18.633Z,995.61
2023-05-14T20:35:18.582Z,995.61
2023-05-14T20:40:18.617Z,995.56
2023-05-14T20:45:18.463Z,995.65
2023-05-14T20:50:18.411Z,995.72
2023-05-14T20:55:18.398Z,995.57
2023-05-14T21:00:18.326Z,995.63
2023-05-14T21:05:18.263Z,995.67
2023-05-14T21:10:18.456Z,995.58
2023-05-14T21:15:18.143Z,995.55
2023-05-14T21:20:18.102Z,995.54
2023-05-14T21:25:18.035Z,995.55
2023-05-14T21:30:17.989Z,995.42
2023-05-14T21:35:17.976Z,995.51
2023-05-14T21:40:17.879Z,995.49
2023-05-14T21:45:17.805Z,995.47
2023-05-14T21:50:17.781Z,995.40
2023-05-14T21:55:17.693Z,995.37
2023-05-14T22:00:17.653Z,995.50
2023-05-14T22:05:17.620Z,995.41
2023-05-14T22:10:17.573Z,995.41
2023-05-14T22:15:17.487Z,995.31
2023-05-14T22:20:17.412Z,995.32
2023-05-14T22:25:17.622Z,995.27
2023-05-14T22:30:17.289Z,995.31
2023-05-14T22:35:17.268Z,995.26
2023-05-14T22:40:17.235Z,995.27
2023-05-14T22:45:17.138Z,995.20
2023-05-14T22:50:17.088Z,995.11
2023-05-14T22:55:17.052Z,995.09
2023-05-14T23:00:17.005Z,995.06
2023-05-14T23:05:16.909Z,995.04
2023-05-14T23:10:16.873Z,994.97
2023-05-14T23:15:16.827Z,994.95
2023-05-14T23:20:16.786Z,994.87
2023-05-14T23:25:16.692Z,994.88
